Pauline Russ — CQIE7 — position and weather

sailwx.info

Track history (hours):
 
Tides and Currents Weather Stations Pressure Air Temp Water Temp Dewpoint Dewpoint Depression Visibility Wind Speed Wind Dir Waves Ship Positions

Pauline Russ

Last reported at 2017-Sep-25 06:18 UTC. Time now 2017-Sep-25 11:34 UTC.
Position N 35°56' W 005°31'.

Length 155 m; draft 6.2 m.

Type: Cargo ship. MMSI: 255805939.

Date/timePositionNaut miles runAvg speedWind from/ knotsBaromVisibWave heightAir tempDewpointWater temp
2017-Sep-25 06:18N 35°56' W 005°31'518.2
2017-Sep-25 06:00N 36°00' W 005°26'917.0
2017-Sep-25 05:30N 36°09' W 005°26'1 2.3
2017-Sep-25 05:00N 36°08' W 005°26'0 0.0
2017-Sep-25 04:28N 36°08' W 005°26'0 0.0
2017-Sep-25 01:32N 36°08' W 005°26'0 0.0
2017-Sep-25 01:26N 36°08' W 005°26'0 0.0
2017-Sep-25 00:59N 36°08' W 005°26'0 0.0
2017-Sep-25 00:29N 36°08' W 005°26'2 0.5
2017-Sep-24 19:58N 36°06' W 005°24'919.5
2017-Sep-24 19:30N 35°58' W 005°26'6 1.5
2017-Sep-24 15:29N 35°53' W 005°31'715.4
2017-Sep-24 15:00N 35°60' W 005°27'917.6
2017-Sep-24 14:30N 36°08' W 005°24'1 2.5
2017-Sep-24 13:58N 36°08' W 005°26'4 0.5
2017-Sep-24 06:29N 36°04' W 005°23'816.0
2017-Sep-24 06:01N 35°57' W 005°27'  
2017-Sep-21 06:27N 36°06' W 005°24'818.6
2017-Sep-21 06:00N 35°58' W 005°26'6 0.6
2017-Sep-20 19:16N 35°53' W 005°31'3 9.3
2017-Sep-20 18:57N 35°56' W 005°30'716.7
2017-Sep-20 18:30N 36°02' W 005°25'4 0.6
2017-Sep-20 12:26N 36°06' W 005°24'819.5
2017-Sep-20 12:00N 35°58' W 005°26'4 0.7
2017-Sep-20 06:25N 35°56' W 005°31'716.9
2017-Sep-20 06:00N 36°02' W 005°25'713.3
2017-Sep-20 05:29N 36°09' W 005°26'1 1.7
2017-Sep-20 05:00N 36°08' W 005°26'0 0.0
2017-Sep-20 04:30N 36°08' W 005°26'0 0.0
2017-Sep-20 03:44N 36°08' W 005°26'0 0.0
2017-Sep-20 03:26N 36°08' W 005°26'0 0.0
2017-Sep-20 02:38N 36°08' W 005°26'0 0.0
2017-Sep-20 02:14N 36°08' W 005°26'0 0.0
2017-Sep-20 01:59N 36°08' W 005°26'0 0.0
2017-Sep-20 01:29N 36°08' W 005°26'0 0.0
2017-Sep-20 00:56N 36°08' W 005°26'0 0.0
2017-Sep-20 00:26N 36°08' W 005°26'0 0.0
2017-Sep-19 23:50N 36°08' W 005°26'0 0.0
2017-Sep-19 22:19N 36°08' W 005°26'0 0.0
2017-Sep-19 19:55N 36°08' W 005°26'0 0.0
2017-Sep-19 19:22N 36°08' W 005°26'0 0.0
2017-Sep-19 18:55N 36°08' W 005°26'1 2.5
2017-Sep-19 18:30N 36°09' W 005°26'611.3
2017-Sep-19 18:00N 36°04' W 005°23'1121.5
2017-Sep-19 17:29N 35°54' W 005°31'3 0.5
2017-Sep-19 12:20N 35°56' W 005°30'618.0
2017-Sep-19 12:00N 36°01' W 005°25'815.0
2017-Sep-19 11:29N 36°09' W 005°26'0 0.0
2017-Sep-18 18:33N 36°09' W 005°26'410.8
2017-Sep-18 18:09N 36°05' W 005°23'321.1
2017-Sep-18 18:00N 36°02' W 005°23'8 1.8
2017-Sep-18 13:40N 35°56' W 005°30'417.3
2017-Sep-18 13:27N 35°59' W 005°27'4 0.5
2017-Sep-18 05:59N 36°02' W 005°24'7 0.6
2017-Sep-17 18:34N 35°56' W 005°30'218.2
2017-Sep-17 18:28N 35°58' W 005°29'816.6
2017-Sep-17 18:01N 36°04' W 005°24'4 7.5
2017-Sep-17 17:29N 36°08' W 005°26'0 0.0
2017-Sep-17 16:31N 36°08' W 005°26'0 0.0
2017-Sep-17 16:25N 36°08' W 005°26'0 0.0
2017-Sep-17 15:58N 36°08' W 005°26'0 0.0
2017-Sep-17 15:28N 36°08' W 005°26'0 0.0
2017-Sep-17 14:58N 36°08' W 005°26'0 0.0
2017-Sep-17 13:19N 36°08' W 005°26'0 1.6
2017-Sep-17 13:00N 36°08' W 005°26'5 9.1
2017-Sep-17 12:30N 36°04' W 005°23'8 1.2
2017-Sep-17 06:07N 35°58' W 005°29'517.0
2017-Sep-17 05:48N 36°02' W 005°25'715.8
2017-Sep-17 05:22N 36°09' W 005°26'1 0.1
2017-Sep-16 18:32N 36°08' W 005°26'0 2.3
2017-Sep-16 18:29N 36°08' W 005°26'3 6.7
2017-Sep-16 18:00N 36°06' W 005°23'1121.4
2017-Sep-16 17:31N 35°56' W 005°29'2 0.4
2017-Sep-16 12:22N 35°56' W 005°31'514.3
2017-Sep-16 12:01N 36°00' W 005°27'7 0.5
2017-Sep-15 20:51N 36°08' W 005°26'2 5.1
2017-Sep-15 20:23N 36°07' W 005°23'719.6
2017-Sep-15 20:01N 35°60' W 005°24'6 0.8
2017-Sep-15 12:58N 35°56' W 005°30'715.5
2017-Sep-15 12:30N 36°02' W 005°24'7 1.2
2017-Sep-15 06:29N 36°09' W 005°26'  
Track history (hours):
 
Tides and Currents Weather Stations Pressure Air Temp Water Temp Dewpoint Dewpoint Depression Visibility Wind Speed Wind Dir Waves Ship Positions

Pauline Russ

Last reported at 2017-Sep-25 06:18 UTC. Time now 2017-Sep-25 11:34 UTC.
Position N 35°56' W 005°31'.

Length 155 m; draft 6.2 m.

Type: Cargo ship. MMSI: 255805939.

Date/timePositionNaut miles runAvg speedWind from/ knotsBaromVisibWave heightAir tempDewpointWater temp
2017-Sep-25 06:18N 35°56' W 005°31'518.2
2017-Sep-25 06:00N 36°00' W 005°26'917.0
2017-Sep-25 05:30N 36°09' W 005°26'1 2.3
2017-Sep-25 05:00N 36°08' W 005°26'0 0.0
2017-Sep-25 04:28N 36°08' W 005°26'0 0.0
2017-Sep-25 01:32N 36°08' W 005°26'0 0.0
2017-Sep-25 01:26N 36°08' W 005°26'0 0.0
2017-Sep-25 00:59N 36°08' W 005°26'0 0.0
2017-Sep-25 00:29N 36°08' W 005°26'2 0.5
2017-Sep-24 19:58N 36°06' W 005°24'919.5
2017-Sep-24 19:30N 35°58' W 005°26'6 1.5
2017-Sep-24 15:29N 35°53' W 005°31'715.4
2017-Sep-24 15:00N 35°60' W 005°27'917.6
2017-Sep-24 14:30N 36°08' W 005°24'1 2.5
2017-Sep-24 13:58N 36°08' W 005°26'4 0.5
2017-Sep-24 06:29N 36°04' W 005°23'816.0
2017-Sep-24 06:01N 35°57' W 005°27'  
2017-Sep-21 06:27N 36°06' W 005°24'818.6
2017-Sep-21 06:00N 35°58' W 005°26'6 0.6
2017-Sep-20 19:16N 35°53' W 005°31'3 9.3
2017-Sep-20 18:57N 35°56' W 005°30'716.7
2017-Sep-20 18:30N 36°02' W 005°25'4 0.6
2017-Sep-20 12:26N 36°06' W 005°24'819.5
2017-Sep-20 12:00N 35°58' W 005°26'4 0.7
2017-Sep-20 06:25N 35°56' W 005°31'716.9
2017-Sep-20 06:00N 36°02' W 005°25'713.3
2017-Sep-20 05:29N 36°09' W 005°26'1 1.7
2017-Sep-20 05:00N 36°08' W 005°26'0 0.0
2017-Sep-20 04:30N 36°08' W 005°26'0 0.0
2017-Sep-20 03:44N 36°08' W 005°26'0 0.0
2017-Sep-20 03:26N 36°08' W 005°26'0 0.0
2017-Sep-20 02:38N 36°08' W 005°26'0 0.0
2017-Sep-20 02:14N 36°08' W 005°26'0 0.0
2017-Sep-20 01:59N 36°08' W 005°26'0 0.0
2017-Sep-20 01:29N 36°08' W 005°26'0 0.0
2017-Sep-20 00:56N 36°08' W 005°26'0 0.0
2017-Sep-20 00:26N 36°08' W 005°26'0 0.0
2017-Sep-19 23:50N 36°08' W 005°26'0 0.0
2017-Sep-19 22:19N 36°08' W 005°26'0 0.0
2017-Sep-19 19:55N 36°08' W 005°26'0 0.0
2017-Sep-19 19:22N 36°08' W 005°26'0 0.0
2017-Sep-19 18:55N 36°08' W 005°26'1 2.5
2017-Sep-19 18:30N 36°09' W 005°26'611.3
2017-Sep-19 18:00N 36°04' W 005°23'1121.5
2017-Sep-19 17:29N 35°54' W 005°31'3 0.5
2017-Sep-19 12:20N 35°56' W 005°30'618.0
2017-Sep-19 12:00N 36°01' W 005°25'815.0
2017-Sep-19 11:29N 36°09' W 005°26'0 0.0
2017-Sep-18 18:33N 36°09' W 005°26'410.8
2017-Sep-18 18:09N 36°05' W 005°23'321.1
2017-Sep-18 18:00N 36°02' W 005°23'8 1.8
2017-Sep-18 13:40N 35°56' W 005°30'417.3
2017-Sep-18 13:27N 35°59' W 005°27'4 0.5
2017-Sep-18 05:59N 36°02' W 005°24'7 0.6
2017-Sep-17 18:34N 35°56' W 005°30'218.2
2017-Sep-17 18:28N 35°58' W 005°29'816.6
2017-Sep-17 18:01N 36°04' W 005°24'4 7.5
2017-Sep-17 17:29N 36°08' W 005°26'0 0.0
2017-Sep-17 16:31N 36°08' W 005°26'0 0.0
2017-Sep-17 16:25N 36°08' W 005°26'0 0.0
2017-Sep-17 15:58N 36°08' W 005°26'0 0.0
2017-Sep-17 15:28N 36°08' W 005°26'0 0.0
2017-Sep-17 14:58N 36°08' W 005°26'0 0.0
2017-Sep-17 13:19N 36°08' W 005°26'0 1.6
2017-Sep-17 13:00N 36°08' W 005°26'5 9.1
2017-Sep-17 12:30N 36°04' W 005°23'8 1.2
2017-Sep-17 06:07N 35°58' W 005°29'517.0
2017-Sep-17 05:48N 36°02' W 005°25'715.8
2017-Sep-17 05:22N 36°09' W 005°26'1 0.1
2017-Sep-16 18:32N 36°08' W 005°26'0 2.3
2017-Sep-16 18:29N 36°08' W 005°26'3 6.7
2017-Sep-16 18:00N 36°06' W 005°23'1121.4
2017-Sep-16 17:31N 35°56' W 005°29'2 0.4
2017-Sep-16 12:22N 35°56' W 005°31'514.3
2017-Sep-16 12:01N 36°00' W 005°27'7 0.5
2017-Sep-15 20:51N 36°08' W 005°26'2 5.1
2017-Sep-15 20:23N 36°07' W 005°23'719.6
2017-Sep-15 20:01N 35°60' W 005°24'6 0.8
2017-Sep-15 12:58N 35°56' W 005°30'715.5
2017-Sep-15 12:30N 36°02' W 005°24'7 1.2
2017-Sep-15 06:29N 36°09' W 005°26'  

Dump ship's entire track history